sensor_id;sensor_type;location;lat;lon;timestamp;pressure;altitude;pressure_sealevel;temperature;humidity
30021;BME280;16861;52.294;7.760;2022-08-21T00:01:39;99925.94;;;21.23;50.15
30021;BME280;16861;52.294;7.760;2022-08-21T00:04:07;99933.66;;;21.26;49.95
30021;BME280;16861;52.294;7.760;2022-08-21T00:06:35;99928.00;;;21.29;50.10
30021;BME280;16861;52.294;7.760;2022-08-21T00:09:04;99921.34;;;21.33;50.14
30021;BME280;16861;52.294;7.760;2022-08-21T00:11:33;99914.84;;;21.36;49.85
30021;BME280;16861;52.294;7.760;2022-08-21T00:14:02;99912.69;;;21.40;50.14
30021;BME280;16861;52.294;7.760;2022-08-21T00:16:29;99916.75;;;21.44;50.19
30021;BME280;16861;52.294;7.760;2022-08-21T00:18:56;99915.59;;;21.46;50.05
30021;BME280;16861;52.294;7.760;2022-08-21T00:21:22;99906.41;;;21.49;50.27
30021;BME280;16861;52.294;7.760;2022-08-21T00:23:49;99912.31;;;21.53;50.04
30021;BME280;16861;52.294;7.760;2022-08-21T00:26:16;99913.13;;;21.53;50.08
30021;BME280;16861;52.294;7.760;2022-08-21T00:28:43;99905.78;;;21.55;50.27
30021;BME280;16861;52.294;7.760;2022-08-21T00:31:12;99907.47;;;21.56;50.70
30021;BME280;16861;52.294;7.760;2022-08-21T00:33:39;99902.97;;;21.57;50.63
30021;BME280;16861;52.294;7.760;2022-08-21T00:36:05;99907.47;;;21.56;50.91
30021;BME280;16861;52.294;7.760;2022-08-21T00:38:32;99903.94;;;21.56;50.58
30021;BME280;16861;52.294;7.760;2022-08-21T00:41:01;99904.94;;;21.55;50.72
30021;BME280;16861;52.294;7.760;2022-08-21T00:43:49;99896.25;;;21.53;50.43
30021;BME280;16861;52.294;7.760;2022-08-21T00:46:16;99898.22;;;21.51;50.93
30021;BME280;16861;52.294;7.760;2022-08-21T00:48:43;99903.72;;;21.49;51.18
30021;BME280;16861;52.294;7.760;2022-08-21T00:51:14;99903.50;;;21.42;51.83
30021;BME280;16861;52.294;7.760;2022-08-21T00:53:45;99900.16;;;21.40;51.23
30021;BME280;16861;52.294;7.760;2022-08-21T00:56:19;99898.78;;;21.36;51.36
30021;BME280;16861;52.294;7.760;2022-08-21T00:58:47;99901.91;;;21.31;51.15
30021;BME280;16861;52.294;7.760;2022-08-21T01:01:20;99897.03;;;21.27;51.16
30021;BME280;16861;52.294;7.760;2022-08-21T01:03:47;99898.19;;;21.24;51.57
30021;BME280;16861;52.294;7.760;2022-08-21T01:06:16;99892.28;;;21.20;51.88
30021;BME280;16861;52.294;7.760;2022-08-21T01:08:43;99890.59;;;21.19;51.36
30021;BME280;16861;52.294;7.760;2022-08-21T01:11:14;99895.97;;;21.19;52.08
30021;BME280;16861;52.294;7.760;2022-08-21T01:13:41;99891.47;;;21.20;52.42
30021;BME280;16861;52.294;7.760;2022-08-21T01:16:14;99892.28;;;21.20;52.46
30021;BME280;16861;52.294;7.760;2022-08-21T01:18:42;99896.66;;;21.21;52.22
30021;BME280;16861;52.294;7.760;2022-08-21T01:21:10;99899.34;;;21.21;52.25
30021;BME280;16861;52.294;7.760;2022-08-21T01:23:41;99886.94;;;21.20;52.28
30021;BME280;16861;52.294;7.760;2022-08-21T01:26:08;99888.78;;;21.20;52.31
30021;BME280;16861;52.294;7.760;2022-08-21T01:28:44;99892.59;;;21.17;53.12
30021;BME280;16861;52.294;7.760;2022-08-21T01:31:14;99894.28;;;21.18;52.88
30021;BME280;16861;52.294;7.760;2022-08-21T01:33:42;99897.09;;;21.17;52.89
30021;BME280;16861;52.294;7.760;2022-08-21T01:36:09;99894.44;;;21.17;53.09
30021;BME280;16861;52.294;7.760;2022-08-21T01:38:35;99895.28;;;21.17;53.15
30021;BME280;16861;52.294;7.760;2022-08-21T01:41:02;99900.63;;;21.17;52.96
30021;BME280;16861;52.294;7.760;2022-08-21T01:43:29;99894.44;;;21.17;52.30
30021;BME280;16861;52.294;7.760;2022-08-21T01:46:04;99898.78;;;21.18;52.52
30021;BME280;16861;52.294;7.760;2022-08-21T01:48:31;99895.09;;;21.19;52.32
30021;BME280;16861;52.294;7.760;2022-08-21T01:50:58;99894.28;;;21.18;52.54
30021;BME280;16861;52.294;7.760;2022-08-21T01:53:26;99899.63;;;21.18;52.65
30021;BME280;16861;52.294;7.760;2022-08-21T01:55:59;99894.44;;;21.17;52.09
30021;BME280;16861;52.294;7.760;2022-08-21T01:58:26;99894.59;;;21.15;51.77
30021;BME280;16861;52.294;7.760;2022-08-21T02:00:53;99892.91;;;21.14;51.84
30021;BME280;16861;52.294;7.760;2022-08-21T02:03:19;99890.53;;;21.11;51.80
30021;BME280;16861;52.294;7.760;2022-08-21T02:06:01;99890.00;;;21.07;51.43
30021;BME280;16861;52.294;7.760;2022-08-21T02:08:28;99891.97;;;21.05;51.49
30021;BME280;16861;52.294;7.760;2022-08-21T02:10:55;99888.63;;;21.03;51.65
30021;BME280;16861;52.294;7.760;2022-08-21T02:13:21;99887.78;;;21.03;51.47
30021;BME280;16861;52.294;7.760;2022-08-21T02:15:48;99885.09;;;21.03;51.68
30021;BME280;16861;52.294;7.760;2022-08-21T02:18:15;99882.56;;;21.01;51.33
30021;BME280;16861;52.294;7.760;2022-08-21T02:20:47;99888.09;;;21.00;51.45
30021;BME280;16861;52.294;7.760;2022-08-21T02:23:20;99890.59;;;21.01;51.29
30021;BME280;16861;52.294;7.760;2022-08-21T02:25:52;99887.91;;;21.01;51.29
30021;BME280;16861;52.294;7.760;2022-08-21T02:28:19;99885.44;;;21.00;51.35
30021;BME280;16861;52.294;7.760;2022-08-21T02:30:47;99890.06;;;20.98;51.24
30021;BME280;16861;52.294;7.760;2022-08-21T02:33:15;99890.06;;;20.98;51.45
30021;BME280;16861;52.294;7.760;2022-08-21T02:35:43;99890.38;;;20.94;51.23
30021;BME280;16861;52.294;7.760;2022-08-21T02:38:12;99881.81;;;20.91;51.29
30021;BME280;16861;52.294;7.760;2022-08-21T02:40:42;99880.28;;;20.88;51.23
30021;BME280;16861;52.294;7.760;2022-08-21T02:43:14;99876.88;;;20.86;51.06
30021;BME280;16861;52.294;7.760;2022-08-21T02:45:43;99881.84;;;20.81;51.13
30021;BME280;16861;52.294;7.760;2022-08-21T02:48:13;99880.31;;;20.78;51.44
30021;BME280;16861;52.294;7.760;2022-08-21T02:50:46;99877.41;;;20.72;51.50
30021;BME280;16861;52.294;7.760;2022-08-21T02:53:13;99876.72;;;20.69;51.10
30021;BME280;16861;52.294;7.760;2022-08-21T02:55:46;99875.72;;;20.70;51.23
30021;BME280;16861;52.294;7.760;2022-08-21T02:58:16;99875.34;;;20.65;51.44
30021;BME280;16861;52.294;7.760;2022-08-21T03:00:43;99871.28;;;20.61;51.39
30021;BME280;16861;52.294;7.760;2022-08-21T03:03:10;99865.22;;;20.59;51.68
30021;BME280;16861;52.294;7.760;2022-08-21T03:05:38;99861.03;;;20.56;51.67
30021;BME280;16861;52.294;7.760;2022-08-21T03:08:07;99860.34;;;20.54;51.78
30021;BME280;16861;52.294;7.760;2022-08-21T03:10:38;99859.50;;;20.54;51.70
30021;BME280;16861;52.294;7.760;2022-08-21T03:13:06;99854.16;;;20.54;51.61
30021;BME280;16861;52.294;7.760;2022-08-21T03:15:34;99854.16;;;20.54;51.62
30021;BME280;16861;52.294;7.760;2022-08-21T03:18:02;99861.31;;;20.53;51.48
30021;BME280;16861;52.294;7.760;2022-08-21T03:20:31;99858.66;;;20.53;51.34
30021;BME280;16861;52.294;7.760;2022-08-21T03:22:59;99856.97;;;20.52;51.63
30021;BME280;16861;52.294;7.760;2022-08-21T03:25:28;99863.19;;;20.53;51.58
30021;BME280;16861;52.294;7.760;2022-08-21T03:28:10;99858.81;;;20.52;51.85
30021;BME280;16861;52.294;7.760;2022-08-21T03:30:49;99853.91;;;20.47;51.88
30021;BME280;16861;52.294;7.760;2022-08-21T03:33:17;99857.13;;;20.51;51.65
30021;BME280;16861;52.294;7.760;2022-08-21T03:35:48;99857.44;;;20.48;52.09
30021;BME280;16861;52.294;7.760;2022-08-21T03:38:18;99857.44;;;20.48;51.56
30021;BME280;16861;52.294;7.760;2022-08-21T03:40:51;99869.09;;;20.47;51.71
30021;BME280;16861;52.294;7.760;2022-08-21T03:43:18;99852.38;;;20.44;51.73
30021;BME280;16861;52.294;7.760;2022-08-21T03:45:45;99864.06;;;20.43;51.81
30021;BME280;16861;52.294;7.760;2022-08-21T03:48:12;99857.19;;;20.41;52.00
30021;BME280;16861;52.294;7.760;2022-08-21T03:50:41;99856.63;;;20.37;52.35
30021;BME280;16861;52.294;7.760;2022-08-21T03:53:10;99858.50;;;20.37;52.21
30021;BME280;16861;52.294;7.760;2022-08-21T03:55:45;99866.66;;;20.35;52.14
30021;BME280;16861;52.294;7.760;2022-08-21T03:58:14;99868.63;;;20.33;52.16
30021;BME280;16861;52.294;7.760;2022-08-21T04:00:45;99865.94;;;20.33;52.02
30021;BME280;16861;52.294;7.760;2022-08-21T04:03:12;99869.63;;;20.32;52.23
30021;BME280;16861;52.294;7.760;2022-08-21T04:05:38;99865.25;;;20.31;52.16
30021;BME280;16861;52.294;7.760;2022-08-21T04:08:06;99877.91;;;20.29;51.99
30021;BME280;16861;52.294;7.760;2022-08-21T04:10:34;99868.38;;;20.26;52.01
30021;BME280;16861;52.294;7.760;2022-08-21T04:13:03;99872.31;;;20.22;51.81
30021;BME280;16861;52.294;7.760;2022-08-21T04:15:30;99875.13;;;20.21;52.02
30021;BME280;16861;52.294;7.760;2022-08-21T04:17:57;99871.94;;;20.17;52.17
30021;BME280;16861;52.294;7.760;2022-08-21T04:20:23;99872.22;;;20.14;52.20
30021;BME280;16861;52.294;7.760;2022-08-21T04:22:51;99881.50;;;20.10;52.31
30021;BME280;16861;52.294;7.760;2022-08-21T04:25:20;99879.16;;;20.07;52.78
30021;BME280;16861;52.294;7.760;2022-08-21T04:27:47;99885.63;;;20.04;52.42
30021;BME280;16861;52.294;7.760;2022-08-21T04:30:14;99886.59;;;20.03;52.72
30021;BME280;16861;52.294;7.760;2022-08-21T04:32:46;99885.22;;;19.99;52.87
30021;BME280;16861;52.294;7.760;2022-08-21T04:35:16;99878.16;;;19.98;52.71
30021;BME280;16861;52.294;7.760;2022-08-21T04:37:44;99886.50;;;19.95;52.77
30021;BME280;16861;52.294;7.760;2022-08-21T04:40:13;99881.44;;;19.91;53.14
30021;BME280;16861;52.294;7.760;2022-08-21T04:42:46;99895.06;;;19.88;53.44
30021;BME280;16861;52.294;7.760;2022-08-21T04:45:22;99885.66;;;19.84;53.16
30021;BME280;16861;52.294;7.760;2022-08-21T04:47:54;99887.34;;;19.85;52.87
30021;BME280;16861;52.294;7.760;2022-08-21T04:50:24;99888.31;;;19.84;53.17
30021;BME280;16861;52.294;7.760;2022-08-21T04:52:53;99891.13;;;19.83;53.03
30021;BME280;16861;52.294;7.760;2022-08-21T04:55:20;99890.59;;;19.79;53.15
30021;BME280;16861;52.294;7.760;2022-08-21T04:57:48;99887.06;;;19.78;53.06
30021;BME280;16861;52.294;7.760;2022-08-21T05:00:16;99891.59;;;19.78;53.35
30021;BME280;16861;52.294;7.760;2022-08-21T05:02:45;99885.53;;;19.76;53.28
30021;BME280;16861;52.294;7.760;2022-08-21T05:05:15;99885.69;;;19.74;52.90
30021;BME280;16861;52.294;7.760;2022-08-21T05:07:42;99885.69;;;19.74;53.23
30021;BME280;16861;52.294;7.760;2022-08-21T05:10:11;99891.88;;;19.75;53.53
30021;BME280;16861;52.294;7.760;2022-08-21T05:12:40;99897.22;;;19.75;53.37
30021;BME280;16861;52.294;7.760;2022-08-21T05:15:09;99900.56;;;19.77;53.36
30021;BME280;16861;52.294;7.760;2022-08-21T05:17:40;99894.25;;;19.78;53.62
30021;BME280;16861;52.294;7.760;2022-08-21T05:20:08;99898.59;;;19.79;53.75
30021;BME280;16861;52.294;7.760;2022-08-21T05:22:35;99897.63;;;19.80;53.45
30021;BME280;16861;52.294;7.760;2022-08-21T05:25:02;99897.47;;;19.82;53.70
30021;BME280;16861;52.294;7.760;2022-08-21T05:27:37;99901.97;;;19.81;53.86
30021;BME280;16861;52.294;7.760;2022-08-21T05:30:09;99894.94;;;19.80;53.72
30021;BME280;16861;52.294;7.760;2022-08-21T05:32:36;99893.00;;;19.82;53.38
30021;BME280;16861;52.294;7.760;2022-08-21T05:35:05;99898.34;;;19.82;53.78
30021;BME280;16861;52.294;7.760;2022-08-21T05:37:33;99901.69;;;19.84;53.48
30021;BME280;16861;52.294;7.760;2022-08-21T05:40:00;99899.88;;;19.85;53.75
30021;BME280;16861;52.294;7.760;2022-08-21T05:42:47;99900.56;;;19.87;53.81
30021;BME280;16861;52.294;7.760;2022-08-21T05:45:20;99902.22;;;19.88;53.22
30021;BME280;16861;52.294;7.760;2022-08-21T05:48:09;99900.81;;;19.93;53.41
30021;BME280;16861;52.294;7.760;2022-08-21T05:50:37;99895.47;;;19.93;53.46
30021;BME280;16861;52.294;7.760;2022-08-21T05:53:05;99900.94;;;19.92;53.71
30021;BME280;16861;52.294;7.760;2022-08-21T05:55:33;99907.16;;;19.92;53.31
30021;BME280;16861;52.294;7.760;2022-08-21T05:58:02;99904.47;;;19.92;53.61
30021;BME280;16861;52.294;7.760;2022-08-21T06:00:28;99898.00;;;19.95;53.64
30021;BME280;16861;52.294;7.760;2022-08-21T06:02:55;99897.00;;;19.96;53.91
30021;BME280;16861;52.294;7.760;2022-08-21T06:05:22;99891.66;;;19.96;53.85
30021;BME280;16861;52.294;7.760;2022-08-21T06:08:02;99900.28;;;20.00;54.03
30021;BME280;16861;52.294;7.760;2022-08-21T06:10:29;99898.28;;;20.02;53.88
30021;BME280;16861;52.294;7.760;2022-08-21T06:12:56;99894.47;;;20.04;53.91
30021;BME280;16861;52.294;7.760;2022-08-21T06:15:23;99896.00;;;20.07;53.58
30021;BME280;16861;52.294;7.760;2022-08-21T06:17:49;99906.41;;;20.10;53.95
30021;BME280;16861;52.294;7.760;2022-08-21T06:20:16;99906.00;;;20.15;53.92
30021;BME280;16861;52.294;7.760;2022-08-21T06:22:42;99906.53;;;20.18;54.06
30021;BME280;16861;52.294;7.760;2022-08-21T06:25:09;99903.72;;;20.20;53.28
30021;BME280;16861;52.294;7.760;2022-08-21T06:27:36;99907.06;;;20.22;53.14
30021;BME280;16861;52.294;7.760;2022-08-21T06:30:06;99897.09;;;20.24;53.15
30021;BME280;16861;52.294;7.760;2022-08-21T06:32:34;99898.47;;;20.28;53.03
30021;BME280;16861;52.294;7.760;2022-08-21T06:35:03;99903.50;;;20.31;53.05
30021;BME280;16861;52.294;7.760;2022-08-21T06:37:30;99894.22;;;20.36;53.01
30021;BME280;16861;52.294;7.760;2022-08-21T06:39:57;99892.91;;;20.40;53.12
30021;BME280;16861;52.294;7.760;2022-08-21T06:42:25;99903.19;;;20.44;52.89
30021;BME280;16861;52.294;7.760;2022-08-21T06:44:53;99909.06;;;20.48;52.74
30021;BME280;16861;52.294;7.760;2022-08-21T06:47:20;99904.28;;;20.52;52.73
30021;BME280;16861;52.294;7.760;2022-08-21T06:49:47;99902.13;;;20.55;52.72
30021;BME280;16861;52.294;7.760;2022-08-21T06:52:15;99900.84;;;20.60;52.45
30021;BME280;16861;52.294;7.760;2022-08-21T06:54:42;99897.88;;;20.63;52.56
30021;BME280;16861;52.294;7.760;2022-08-21T06:57:09;99892.22;;;20.66;53.00
30021;BME280;16861;52.294;7.760;2022-08-21T06:59:35;99898.81;;;20.72;53.05
30021;BME280;16861;52.294;7.760;2022-08-21T07:02:03;99897.50;;;20.76;53.21
30021;BME280;16861;52.294;7.760;2022-08-21T07:04:29;99890.88;;;20.80;52.88
30021;BME280;16861;52.294;7.760;2022-08-21T07:06:56;99899.28;;;20.85;52.09
30021;BME280;16861;52.294;7.760;2022-08-21T07:09:23;99893.66;;;20.88;52.50
30021;BME280;16861;52.294;7.760;2022-08-21T07:11:52;99895.91;;;20.93;52.89
30021;BME280;16861;52.294;7.760;2022-08-21T07:14:19;99894.44;;;20.99;52.86
30021;BME280;16861;52.294;7.760;2022-08-21T07:16:47;99889.47;;;21.04;52.87
30021;BME280;16861;52.294;7.760;2022-08-21T07:19:13;99893.50;;;21.08;52.87
30021;BME280;16861;52.294;7.760;2022-08-21T07:21:40;99888.56;;;21.13;52.81
30021;BME280;16861;52.294;7.760;2022-08-21T07:24:07;99897.78;;;21.19;52.66
30021;BME280;16861;52.294;7.760;2022-08-21T07:26:34;99893.81;;;21.23;52.50
30021;BME280;16861;52.294;7.760;2022-08-21T07:29:01;99884.66;;;21.26;52.32
30021;BME280;16861;52.294;7.760;2022-08-21T07:31:28;99892.34;;;21.29;52.38
30021;BME280;16861;52.294;7.760;2022-08-21T07:33:55;99895.88;;;21.29;51.97
30021;BME280;16861;52.294;7.760;2022-08-21T07:36:22;99897.56;;;21.30;52.37
30021;BME280;16861;52.294;7.760;2022-08-21T07:38:49;99892.06;;;21.32;52.60
30021;BME280;16861;52.294;7.760;2022-08-21T07:41:21;99888.38;;;21.33;52.75
30021;BME280;16861;52.294;7.760;2022-08-21T07:43:48;99887.06;;;21.37;52.48
30021;BME280;16861;52.294;7.760;2022-08-21T07:46:18;99885.75;;;21.41;52.32
30021;BME280;16861;52.294;7.760;2022-08-21T07:48:45;99887.13;;;21.45;52.42
30021;BME280;16861;52.294;7.760;2022-08-21T07:51:13;99890.19;;;21.51;52.34
30021;BME280;16861;52.294;7.760;2022-08-21T07:53:41;99890.56;;;21.56;52.02
30021;BME280;16861;52.294;7.760;2022-08-21T07:56:08;99887.41;;;21.60;51.96
30021;BME280;16861;52.294;7.760;2022-08-21T07:58:35;99884.28;;;21.65;51.81
30021;BME280;16861;52.294;7.760;2022-08-21T08:01:01;99877.63;;;21.69;51.75
30021;BME280;16861;52.294;7.760;2022-08-21T08:03:28;99886.03;;;21.74;51.23
30021;BME280;16861;52.294;7.760;2022-08-21T08:05:56;99886.56;;;21.78;51.79
30021;BME280;16861;52.294;7.760;2022-08-21T08:08:23;99885.25;;;21.82;51.61
30021;BME280;16861;52.294;7.760;2022-08-21T08:10:51;99893.66;;;21.87;51.47
30021;BME280;16861;52.294;7.760;2022-08-21T08:13:19;99882.63;;;21.91;51.22
30021;BME280;16861;52.294;7.760;2022-08-21T08:15:45;99888.34;;;21.96;51.26
30021;BME280;16861;52.294;7.760;2022-08-21T08:18:12;99887.03;;;22.00;50.69
30021;BME280;16861;52.294;7.760;2022-08-21T08:20:40;99878.50;;;22.05;50.46
30021;BME280;16861;52.294;7.760;2022-08-21T08:23:16;99876.50;;;22.07;50.23
30021;BME280;16861;52.294;7.760;2022-08-21T08:25:44;99886.25;;;22.16;50.52
30021;BME280;16861;52.294;7.760;2022-08-21T08:28:12;99882.25;;;22.20;50.02
30021;BME280;16861;52.294;7.760;2022-08-21T08:30:47;99875.41;;;22.26;50.40
30021;BME280;16861;52.294;7.760;2022-08-21T08:33:20;99874.94;;;22.31;50.45
30021;BME280;16861;52.294;7.760;2022-08-21T08:35:51;99873.28;;;22.38;50.04
30021;BME280;16861;52.294;7.760;2022-08-21T08:38:53;99872.63;;;22.44;50.15
30021;BME280;16861;52.294;7.760;2022-08-21T08:41:45;99870.38;;;22.58;50.63
30021;BME280;16861;52.294;7.760;2022-08-21T08:44:24;99866.69;;;22.67;50.32
30021;BME280;16861;52.294;7.760;2022-08-21T08:46:56;99870.41;;;22.74;50.23
30021;BME280;16861;52.294;7.760;2022-08-21T08:49:47;99877.13;;;22.78;50.06
30021;BME280;16861;52.294;7.760;2022-08-21T08:54:45;99877.50;;;23.00;50.18
30021;BME280;16861;52.294;7.760;2022-08-21T08:57:17;99871.78;;;23.12;49.69
30021;BME280;16861;52.294;7.760;2022-08-21T08:59:50;99873.44;;;23.21;49.33
30021;BME280;16861;52.294;7.760;2022-08-21T09:02:19;99872.44;;;23.30;49.43
30021;BME280;16861;52.294;7.760;2022-08-21T09:04:47;99876.84;;;23.40;49.58
30021;BME280;16861;52.294;7.760;2022-08-21T09:07:38;99875.31;;;23.46;49.02
30021;BME280;16861;52.294;7.760;2022-08-21T09:10:17;99864.91;;;23.59;48.38
30021;BME280;16861;52.294;7.760;2022-08-21T09:21:15;99858.78;;;23.99;47.03
30021;BME280;16861;52.294;7.760;2022-08-21T09:26:20;99861.78;;;24.12;46.74
30021;BME280;16861;52.294;7.760;2022-08-21T09:28:59;99862.44;;;24.14;46.73
30021;BME280;16861;52.294;7.760;2022-08-21T09:31:35;99851.00;;;24.20;47.01
30021;BME280;16861;52.294;7.760;2022-08-21T09:34:09;99850.59;;;24.32;46.78
30021;BME280;16861;52.294;7.760;2022-08-21T09:36:49;99853.22;;;24.40;47.11
30021;BME280;16861;52.294;7.760;2022-08-21T09:39:30;99849.78;;;24.55;47.34
30021;BME280;16861;52.294;7.760;2022-08-21T09:41:58;99845.16;;;24.72;47.35
30021;BME280;16861;52.294;7.760;2022-08-21T09:44:32;99852.16;;;24.81;46.67
30021;BME280;16861;52.294;7.760;2022-08-21T09:46:59;99843.69;;;24.93;46.12
30021;BME280;16861;52.294;7.760;2022-08-21T09:49:29;99846.34;;;25.01;45.66
30021;BME280;16861;52.294;7.760;2022-08-21T09:51:56;99832.13;;;25.07;46.18
30021;BME280;16861;52.294;7.760;2022-08-21T09:54:31;99840.78;;;25.18;46.42
30021;BME280;16861;52.294;7.760;2022-08-21T09:57:05;99837.66;;;25.29;45.93
30021;BME280;16861;52.294;7.760;2022-08-21T10:00:22;99833.88;;;25.38;44.82
30021;BME280;16861;52.294;7.760;2022-08-21T10:02:50;99833.78;;;25.47;46.18
30021;BME280;16861;52.294;7.760;2022-08-21T10:05:21;99819.25;;;25.56;45.95
30021;BME280;16861;52.294;7.760;2022-08-21T10:07:49;99831.16;;;25.62;46.32
30021;BME280;16861;52.294;7.760;2022-08-21T10:10:28;99831.59;;;25.66;44.74
30021;BME280;16861;52.294;7.760;2022-08-21T10:27:16;99826.34;;;26.24;44.14
30021;BME280;16861;52.294;7.760;2022-08-21T10:30:06;99831.03;;;26.31;43.46
30021;BME280;16861;52.294;7.760;2022-08-21T10:35:31;99815.63;;;26.46;42.32
30021;BME280;16861;52.294;7.760;2022-08-21T10:55:43;99817.91;;;26.64;42.02
30021;BME280;16861;52.294;7.760;2022-08-21T10:58:14;99813.97;;;26.89;41.26
30021;BME280;16861;52.294;7.760;2022-08-21T11:00:51;99808.00;;;27.15;41.85
30021;BME280;16861;52.294;7.760;2022-08-21T11:03:39;99800.97;;;27.50;41.33
30021;BME280;16861;52.294;7.760;2022-08-21T11:06:29;99805.22;;;28.01;41.88
30021;BME280;16861;52.294;7.760;2022-08-21T11:09:05;99807.06;;;28.63;40.75
30021;BME280;16861;52.294;7.760;2022-08-21T11:11:56;99806.28;;;29.30;41.23
30021;BME280;16861;52.294;7.760;2022-08-21T11:15:07;99806.75;;;30.00;39.17
30021;BME280;16861;52.294;7.760;2022-08-21T11:18:09;99806.75;;;30.52;37.05
30021;BME280;16861;52.294;7.760;2022-08-21T11:20:56;99806.31;;;30.88;39.32
30021;BME280;16861;52.294;7.760;2022-08-21T11:23:31;99803.00;;;31.30;36.96
30021;BME280;16861;52.294;7.760;2022-08-21T11:26:10;99814.94;;;31.73;36.46
30021;BME280;16861;52.294;7.760;2022-08-21T11:28:52;99819.63;;;32.22;35.90
30021;BME280;16861;52.294;7.760;2022-08-21T11:43:00;99818.13;;;34.12;32.39
30021;BME280;16861;52.294;7.760;2022-08-21T11:45:42;99818.22;;;34.47;31.84
30021;BME280;16861;52.294;7.760;2022-08-21T11:50:42;99819.78;;;35.06;31.28
30021;BME280;16861;52.294;7.760;2022-08-21T11:53:19;99822.59;;;35.28;29.11
30021;BME280;16861;52.294;7.760;2022-08-21T11:55:53;99816.69;;;35.54;29.64
30021;BME280;16861;52.294;7.760;2022-08-21T11:58:32;99820.59;;;35.80;30.45
30021;BME280;16861;52.294;7.760;2022-08-21T12:01:07;99824.78;;;36.10;28.81
30021;BME280;16861;52.294;7.760;2022-08-21T12:03:42;99817.94;;;36.35;28.43
30021;BME280;16861;52.294;7.760;2022-08-21T12:06:13;99816.22;;;36.57;28.18
30021;BME280;16861;52.294;7.760;2022-08-21T12:08:58;99827.06;;;36.69;27.58
30021;BME280;16861;52.294;7.760;2022-08-21T12:11:26;99823.59;;;36.84;27.43
30021;BME280;16861;52.294;7.760;2022-08-21T12:14:12;99823.09;;;36.87;27.34
30021;BME280;16861;52.294;7.760;2022-08-21T12:16:45;99825.94;;;36.97;26.11
30021;BME280;16861;52.294;7.760;2022-08-21T12:19:28;99817.41;;;36.99;26.72
30021;BME280;16861;52.294;7.760;2022-08-21T12:24:45;99820.53;;;37.13;26.31
30021;BME280;16861;52.294;7.760;2022-08-21T12:29:55;99814.59;;;37.26;26.34
30021;BME280;16861;52.294;7.760;2022-08-21T12:32:43;99808.34;;;37.31;25.91
30021;BME280;16861;52.294;7.760;2022-08-21T12:35:17;99809.75;;;37.44;26.75
30021;BME280;16861;52.294;7.760;2022-08-21T12:38:07;99800.25;;;37.62;26.96
30021;BME280;16861;52.294;7.760;2022-08-21T12:40:41;99810.00;;;37.91;26.06
30021;BME280;16861;52.294;7.760;2022-08-21T12:43:20;99807.56;;;38.00;26.00
30021;BME280;16861;52.294;7.760;2022-08-21T12:45:49;99799.84;;;37.97;24.73
30021;BME280;16861;52.294;7.760;2022-08-21T12:48:25;99799.75;;;37.65;24.38
30021;BME280;16861;52.294;7.760;2022-08-21T12:50:58;99801.97;;;37.25;24.38
30021;BME280;16861;52.294;7.760;2022-08-21T12:53:46;99798.84;;;36.73;24.89
30021;BME280;16861;52.294;7.760;2022-08-21T12:56:19;99812.16;;;36.32;26.27
30021;BME280;16861;52.294;7.760;2022-08-21T12:58:50;99805.59;;;36.10;26.78
30021;BME280;16861;52.294;7.760;2022-08-21T13:01:27;99807.38;;;35.99;26.24
30021;BME280;16861;52.294;7.760;2022-08-21T13:03:58;99803.66;;;36.06;26.05
30021;BME280;16861;52.294;7.760;2022-08-21T13:06:36;99796.88;;;36.13;25.92
30021;BME280;16861;52.294;7.760;2022-08-21T13:09:05;99806.50;;;36.16;25.02
30021;BME280;16861;52.294;7.760;2022-08-21T13:11:33;99805.69;;;36.16;25.73
30021;BME280;16861;52.294;7.760;2022-08-21T13:14:01;99805.34;;;36.12;25.65
30021;BME280;16861;52.294;7.760;2022-08-21T13:16:33;99816.75;;;36.04;25.27
30021;BME280;16861;52.294;7.760;2022-08-21T13:19:06;99802.94;;;35.93;24.79
30021;BME280;16861;52.294;7.760;2022-08-21T13:21:41;99812.13;;;35.82;24.84
30021;BME280;16861;52.294;7.760;2022-08-21T13:30:07;99811.56;;;35.40;26.06
30021;BME280;16861;52.294;7.760;2022-08-21T13:32:40;99809.50;;;35.30;25.19
30021;BME280;16861;52.294;7.760;2022-08-21T13:35:24;99805.72;;;35.14;26.60
30021;BME280;16861;52.294;7.760;2022-08-21T13:37:54;99805.59;;;35.09;26.38
30021;BME280;16861;52.294;7.760;2022-08-21T13:40:31;99805.94;;;34.95;26.20
30021;BME280;16861;52.294;7.760;2022-08-21T13:42:59;99806.47;;;34.92;26.39
30021;BME280;16861;52.294;7.760;2022-08-21T13:45:31;99809.19;;;34.92;26.10
30021;BME280;16861;52.294;7.760;2022-08-21T13:48:00;99800.56;;;35.01;26.19
30021;BME280;16861;52.294;7.760;2022-08-21T13:50:33;99815.47;;;35.10;26.24
30021;BME280;16861;52.294;7.760;2022-08-21T13:53:07;99815.00;;;35.13;25.98
30021;BME280;16861;52.294;7.760;2022-08-21T13:55:42;99811.41;;;35.13;26.26
30021;BME280;16861;52.294;7.760;2022-08-21T13:58:11;99822.94;;;35.15;26.57
30021;BME280;16861;52.294;7.760;2022-08-21T14:00:47;99820.34;;;35.08;26.40
30021;BME280;16861;52.294;7.760;2022-08-21T14:03:32;99812.31;;;35.01;26.62
30021;BME280;16861;52.294;7.760;2022-08-21T14:06:01;99816.69;;;35.02;25.99
30021;BME280;16861;52.294;7.760;2022-08-21T14:08:34;99810.34;;;34.96;25.87
30021;BME280;16861;52.294;7.760;2022-08-21T14:11:05;99810.00;;;34.93;25.14
30021;BME280;16861;52.294;7.760;2022-08-21T14:13:42;99808.28;;;34.87;25.34
30021;BME280;16861;52.294;7.760;2022-08-21T14:16:23;99814.41;;;34.77;25.73
30021;BME280;16861;52.294;7.760;2022-08-21T14:21:36;99808.59;;;34.73;25.27
30021;BME280;16861;52.294;7.760;2022-08-21T14:26:42;99810.25;;;34.91;25.91
30021;BME280;16861;52.294;7.760;2022-08-21T14:29:13;99805.53;;;35.04;25.92
30021;BME280;16861;52.294;7.760;2022-08-21T14:31:42;99811.03;;;35.21;25.94
30021;BME280;16861;52.294;7.760;2022-08-21T14:34:11;99813.41;;;35.34;25.90
30021;BME280;16861;52.294;7.760;2022-08-21T14:36:45;99815.00;;;35.53;25.96
30021;BME280;16861;52.294;7.760;2022-08-21T14:39:11;99806.19;;;35.68;26.03
30021;BME280;16861;52.294;7.760;2022-08-21T14:41:38;99805.06;;;35.86;25.64